Time;durP1;ratioP1;P1;durP2;ratioP2;P2;SDS_P1;SDS_P2;PMS_P1;PMS_P2;Temp;Humidity;BMP_temperature;BMP_pressure;BME280_temperature;BME280_humidity;BME280_pressure;Samples;Min_cycle;Max_cycle;Signal;HPM_P1;HPM_P2
2021/01/30 13:05:25;;;;;;;18.40;8.03;;;;;;;-1.04;74.86;97091.42;1819877;79;22310;-61
2021/01/30 13:07:51;;;;;;;30.30;11.47;;;;;;;-0.87;75.90;97080.58;1795243;80;21681;-63
2021/01/30 13:10:20;;;;;;;20.73;10.17;;;;;;;-0.56;75.48;97074.55;1796967;80;21234;-66
2021/01/30 13:12:46;;;;;;;24.97;10.33;;;;;;;-0.72;75.07;97094.77;1742725;80;21141;-63
2021/01/30 13:15:13;;;;;;;25.77;11.17;;;;;;;-0.73;75.69;97102.50;1767200;80;21088;-63
2021/01/30 13:17:38;;;;;;;29.30;12.20;;;;;;;-0.62;76.40;97093.91;1796384;80;21094;-65
2021/01/30 13:20:06;;;;;;;32.63;13.90;;;;;;;-0.43;76.90;97100.80;1796257;80;21793;-65
2021/01/30 13:22:33;;;;;;;28.67;11.40;;;;;;;-0.55;76.38;97109.41;1702878;81;21148;-64
2021/01/30 13:25:04;;;;;;;25.23;10.93;;;;;;;-0.55;76.64;97114.19;1762333;81;21130;-62
2021/01/30 13:27:29;;;;;;;31.90;13.30;;;;;;;-0.50;75.32;97130.02;1762114;81;21121;-63
2021/01/30 13:29:55;;;;;;;22.67;10.27;;;;;;;-0.59;75.61;97123.89;1707348;81;21089;-65
2021/01/30 13:32:21;;;;;;;34.03;12.63;;;;;;;-0.88;75.97;97141.55;1762457;81;21085;-56
2021/01/30 13:34:47;;;;;;;30.10;11.70;;;;;;;-0.55;76.28;97132.83;1762182;81;21166;-57
2021/01/30 13:37:12;;;;;;;33.47;13.60;;;;;;;-0.77;76.24;97140.94;1769883;80;21069;-63
2021/01/30 13:39:39;;;;;;;34.97;14.10;;;;;;;-0.53;75.64;97136.52;1793432;80;21086;-59
2021/01/30 13:42:06;;;;;;;33.50;14.80;;;;;;;-0.44;75.11;97152.48;1793769;80;21532;-56
2021/01/30 13:44:32;;;;;;;32.60;13.03;;;;;;;-0.22;75.30;97140.34;1793643;80;21097;-61
2021/01/30 13:46:58;;;;;;;22.07;10.43;;;;;;;-0.14;74.51;97151.55;1792947;80;21510;-61
2021/01/30 13:49:24;;;;;;;36.17;14.77;;;;;;;-0.41;71.75;97175.28;1789836;80;21142;-63
2021/01/30 13:51:50;;;;;;;30.83;13.57;;;;;;;-0.33;73.62;97153.20;1792138;80;21109;-61
2021/01/30 13:54:17;;;;;;;21.07;8.00;;;;;;;-0.51;73.15;97171.05;1792009;80;21279;-64
2021/01/30 13:56:42;;;;;;;31.13;13.60;;;;;;;-0.85;71.97;97171.52;1791876;80;21189;-62
2021/01/30 13:59:08;;;;;;;33.30;14.27;;;;;;;-0.65;73.24;97161.09;1760940;80;21235;-63
2021/01/30 14:01:39;;;;;;;34.03;15.00;;;;;;;-0.35;73.20;97173.27;1792124;80;21185;-56
2021/01/30 14:04:06;;;;;;;29.40;11.93;;;;;;;-0.30;73.79;97174.45;1789093;80;21150;-61
2021/01/30 14:06:32;;;;;;;38.57;15.27;;;;;;;-0.75;73.33;97203.20;1784215;80;21120;-61
2021/01/30 14:08:58;;;;;;;34.70;14.60;;;;;;;-0.90;74.61;97192.41;1784485;80;21110;-60
2021/01/30 14:11:24;;;;;;;36.80;16.73;;;;;;;-0.59;74.52;97170.48;1784094;80;21142;-57
2021/01/30 14:13:50;;;;;;;31.20;12.07;;;;;;;-0.55;73.81;97194.07;1784254;80;21725;-61
2021/01/30 14:16:16;;;;;;;22.83;10.30;;;;;;;-0.76;72.18;97201.08;1783658;80;21271;-59
2021/01/30 14:18:42;;;;;;;30.17;12.73;;;;;;;-0.92;71.85;97210.57;1783463;80;21082;-59
2021/01/30 14:21:08;;;;;;;30.63;13.90;;;;;;;-1.06;72.91;97213.89;1783410;80;21207;-60
2021/01/30 14:23:33;;;;;;;29.93;12.03;;;;;;;-0.77;73.12;97212.81;1783407;80;21518;-60
2021/01/30 14:25:59;;;;;;;41.47;15.57;;;;;;;-0.81;73.03;97221.72;1783702;80;21280;-61
2021/01/30 14:28:25;;;;;;;31.73;13.80;;;;;;;-0.72;73.35;97223.88;1783433;80;21179;-60
2021/01/30 14:30:52;;;;;;;31.43;14.47;;;;;;;-0.81;72.63;97231.82;1783581;80;21284;-61
2021/01/30 14:33:19;;;;;;;33.70;14.20;;;;;;;-0.79;72.92;97237.64;1783495;80;21162;-58
2021/01/30 14:35:45;;;;;;;32.73;12.10;;;;;;;-0.76;72.53;97237.02;1783627;80;21167;-58
2021/01/30 14:38:11;;;;;;;36.43;14.80;;;;;;;-0.94;71.80;97254.55;1783565;80;21157;-60
2021/01/30 14:40:41;;;;;;;30.50;13.07;;;;;;;-0.91;72.49;97248.07;1783534;80;21154;-57
2021/01/30 14:43:07;;;;;;;33.27;14.37;;;;;;;-1.02;73.16;97252.88;1783645;80;21264;-57
2021/01/30 14:45:33;;;;;;;33.70;14.43;;;;;;;-0.96;73.51;97265.49;1783674;80;21109;-55
2021/01/30 14:47:59;;;;;;;36.97;15.50;;;;;;;-0.90;73.78;97262.92;1783615;80;21538;-56
2021/01/30 14:50:25;;;;;;;38.20;14.77;;;;;;;-0.77;74.04;97268.71;1783623;80;21276;-59
2021/01/30 14:52:52;;;;;;;38.07;15.97;;;;;;;-0.69;74.12;97274.62;1783570;80;21134;-56
2021/01/30 14:55:18;;;;;;;30.73;14.03;;;;;;;-0.56;74.27;97274.25;1783727;80;21129;-62
2021/01/30 14:57:44;;;;;;;35.60;15.93;;;;;;;-0.57;74.27;97281.48;1783936;80;21174;-58
2021/01/30 15:00:12;;;;;;;43.27;17.57;;;;;;;-0.53;74.23;97292.30;1783604;80;21108;-59
2021/01/30 15:02:38;;;;;;;45.40;19.10;;;;;;;-0.53;74.46;97301.08;1783655;80;21592;-58
2021/01/30 15:05:06;;;;;;;37.17;14.50;;;;;;;-0.54;74.44;97305.36;1783558;80;21133;-55
2021/01/30 15:07:32;;;;;;;38.20;15.77;;;;;;;-0.81;74.08;97303.69;1783722;80;21588;-55
2021/01/30 15:09:58;;;;;;;37.27;17.30;;;;;;;-0.60;74.03;97306.03;1755212;80;21150;-60
2021/01/30 15:12:24;;;;;;;38.97;16.27;;;;;;;-0.53;73.88;97317.59;1783616;80;21157;-56
2021/01/30 15:14:50;;;;;;;31.90;14.50;;;;;;;-0.46;73.73;97304.61;1783661;80;21143;-58
2021/01/30 15:17:17;;;;;;;34.73;16.33;;;;;;;-0.76;73.40;97325.40;1783683;80;21161;-59
2021/01/30 15:19:43;;;;;;;41.93;17.97;;;;;;;-0.73;73.76;97318.13;1783708;80;21126;-56
2021/01/30 15:22:09;;;;;;;35.43;15.93;;;;;;;-0.60;73.98;97319.92;1783935;80;21137;-56
2021/01/30 15:24:34;;;;;;;39.30;17.00;;;;;;;-0.66;73.67;97322.46;1783801;80;21303;-57
2021/01/30 15:27:00;;;;;;;37.03;15.37;;;;;;;-0.65;73.41;97317.38;1783633;80;21738;-59
2021/01/30 15:29:26;;;;;;;33.67;13.50;;;;;;;-0.46;73.28;97334.45;1783226;80;21552;-57
2021/01/30 15:31:53;;;;;;;31.97;14.37;;;;;;;-0.45;72.81;97332.04;1783473;80;21142;-58
2021/01/30 15:34:19;;;;;;;34.33;14.67;;;;;;;-0.52;72.69;97342.57;1783362;80;21161;-57
2021/01/30 15:36:45;;;;;;;37.47;15.37;;;;;;;-0.45;73.26;97344.02;1783632;80;21296;-57
2021/01/30 15:39:11;;;;;;;34.20;15.80;;;;;;;-0.45;73.03;97348.77;1755068;80;22164;-57
2021/01/30 15:41:37;;;;;;;29.13;12.07;;;;;;;-0.43;73.28;97345.81;1783789;80;21178;-58
2021/01/30 15:44:04;;;;;;;37.73;16.10;;;;;;;-0.41;73.03;97359.62;1783815;80;21631;-60
2021/01/30 15:46:30;;;;;;;30.20;14.50;;;;;;;-0.36;73.48;97361.59;1783727;80;21102;-58
2021/01/30 15:48:56;;;;;;;28.77;12.77;;;;;;;-0.36;73.31;97366.13;1783469;80;21854;-57
2021/01/30 15:51:22;;;;;;;32.83;16.13;;;;;;;-0.28;73.20;97364.05;1783826;80;21627;-59
2021/01/30 15:53:48;;;;;;;30.83;14.40;;;;;;;-0.31;72.91;97370.79;1783549;80;21288;-56
2021/01/30 15:56:14;;;;;;;31.90;14.10;;;;;;;-0.37;72.89;97372.55;1783672;80;21202;-59
2021/01/30 15:58:40;;;;;;;39.80;16.80;;;;;;;-0.31;73.02;97377.45;1783636;80;21284;-59
2021/01/30 16:01:06;;;;;;;36.40;16.17;;;;;;;-0.22;73.27;97386.78;1779428;80;21130;-61
2021/01/30 16:03:32;;;;;;;36.43;15.37;;;;;;;-0.22;73.24;97385.45;1775045;80;21083;-58
2021/01/30 16:05:58;;;;;;;35.83;16.33;;;;;;;-0.14;72.87;97386.03;1748592;80;21158;-60
2021/01/30 16:08:24;;;;;;;33.20;13.97;;;;;;;-0.16;73.08;97391.69;1780738;80;21679;-61
2021/01/30 16:10:50;;;;;;;33.53;15.57;;;;;;;-0.10;73.03;97392.32;1744762;82;21115;-57
2021/01/30 16:13:17;;;;;;;39.30;16.87;;;;;;;-0.12;73.26;97389.98;1713908;84;21104;-58
2021/01/30 16:15:43;;;;;;;31.53;14.47;;;;;;;-0.10;72.53;97399.77;1700323;84;21165;-62
2021/01/30 16:18:10;;;;;;;36.63;16.63;;;;;;;-0.20;72.34;97404.05;1744830;82;21119;-60
2021/01/30 16:20:36;;;;;;;32.80;13.10;;;;;;;-0.16;72.99;97400.23;1745343;82;21199;-58
2021/01/30 16:23:02;;;;;;;30.97;15.33;;;;;;;-0.15;72.77;97404.47;1745054;82;21166;-59
2021/01/30 16:25:29;;;;;;;37.47;15.27;;;;;;;-0.25;72.34;97411.38;1745067;82;21102;-57
2021/01/30 16:27:55;;;;;;;38.73;16.57;;;;;;;-0.12;72.63;97409.18;1715279;83;21317;-60
2021/01/30 16:30:22;;;;;;;32.77;15.60;;;;;;;-0.21;72.54;97413.67;1708138;83;21489;-66
2021/01/30 16:32:49;;;;;;;36.33;15.50;;;;;;;-0.05;72.69;97410.84;1669455;83;21171;-57
2021/01/30 16:35:18;;;;;;;36.60;16.13;;;;;;;-0.03;72.55;97408.64;1772824;80;21126;-63
2021/01/30 16:37:44;;;;;;;38.83;15.17;;;;;;;0.00;72.91;97413.38;1770073;81;21689;-60
2021/01/30 16:40:12;;;;;;;39.70;17.03;;;;;;;0.02;72.39;97420.51;1770124;81;21140;-62
2021/01/30 16:42:38;;;;;;;39.33;16.63;;;;;;;-0.01;72.92;97423.25;1762885;80;21177;-59
2021/01/30 16:45:06;;;;;;;38.43;17.33;;;;;;;0.05;72.74;97421.22;1774850;80;21102;-59
2021/01/30 16:47:33;;;;;;;33.60;12.83;;;;;;;0.09;72.83;97426.17;1783334;80;21132;-60
2021/01/30 16:49:58;;;;;;;35.73;16.03;;;;;;;-0.07;72.54;97422.34;1784267;80;21106;-58
2021/01/30 16:52:25;;;;;;;43.47;18.63;;;;;;;-0.14;72.45;97428.67;1784374;80;21067;-62
2021/01/30 16:54:51;;;;;;;42.77;18.77;;;;;;;-0.11;73.54;97428.05;1784527;80;21107;-61
2021/01/30 16:57:17;;;;;;;34.97;16.17;;;;;;;-0.18;73.58;97430.38;1785403;80;21123;-64
2021/01/30 16:59:43;;;;;;;43.53;18.80;;;;;;;-0.18;73.85;97433.83;1789881;80;21107;-67
2021/01/30 17:02:09;;;;;;;36.30;15.90;;;;;;;-0.19;74.01;97422.92;1789796;80;21208;-67
2021/01/30 17:04:34;;;;;;;37.77;18.20;;;;;;;-0.15;74.10;97431.12;1788435;80;21260;-71
2021/01/30 17:07:00;;;;;;;38.27;16.50;;;;;;;-0.22;73.96;97439.53;1784772;80;21119;-57
2021/01/30 17:09:26;;;;;;;42.67;19.93;;;;;;;-0.19;74.25;97442.14;1784810;80;21478;-69
2021/01/30 17:11:52;;;;;;;42.00;19.27;;;;;;;-0.18;73.92;97449.81;1784605;80;21085;-63
2021/01/30 17:14:19;;;;;;;44.87;20.13;;;;;;;-0.06;73.93;97447.91;1784991;80;21094;-60
2021/01/30 17:16:44;;;;;;;41.97;19.73;;;;;;;0.03;73.52;97461.28;1784826;80;21581;-60
2021/01/30 17:19:10;;;;;;;37.63;16.50;;;;;;;0.07;73.80;97457.70;1785001;80;21062;-61
2021/01/30 17:21:36;;;;;;;46.37;22.13;;;;;;;0.00;73.43;97463.45;1784884;80;21594;-59
2021/01/30 17:24:04;;;;;;;47.37;22.77;;;;;;;0.03;73.63;97463.41;1759065;80;21111;-57
2021/01/30 17:26:30;;;;;;;43.20;21.07;;;;;;;0.09;73.75;97473.36;1754223;82;21570;-65
2021/01/30 17:28:56;;;;;;;43.37;19.10;;;;;;;0.10;73.63;97480.28;1753802;80;21102;-62
2021/01/30 17:31:22;;;;;;;46.67;20.33;;;;;;;0.20;73.54;97482.66;1753844;81;21649;-62
2021/01/30 17:33:48;;;;;;;51.27;22.00;;;;;;;0.17;73.27;97493.41;1754128;82;21187;-63
2021/01/30 17:36:14;;;;;;;47.33;20.67;;;;;;;0.25;73.35;97494.53;1753898;82;21545;-59
2021/01/30 17:38:40;;;;;;;40.43;18.70;;;;;;;0.21;73.13;97497.03;1753976;82;21097;-66
2021/01/30 17:41:06;;;;;;;46.00;23.40;;;;;;;0.23;72.36;97492.70;1753979;82;21265;-64
2021/01/30 17:43:32;;;;;;;46.30;21.70;;;;;;;0.31;72.65;97501.28;1775064;80;21106;-61
2021/01/30 17:45:58;;;;;;;45.30;21.97;;;;;;;0.31;72.71;97495.95;1784780;80;21106;-64
2021/01/30 17:48:24;;;;;;;46.47;19.27;;;;;;;0.37;72.57;97501.41;1785123;80;21120;-62
2021/01/30 17:50:50;;;;;;;42.03;20.17;;;;;;;0.42;72.44;97502.03;1785001;80;21669;-64
2021/01/30 17:53:16;;;;;;;43.57;21.37;;;;;;;0.49;72.33;97506.36;1785165;80;21546;-56
2021/01/30 17:55:42;;;;;;;41.90;20.40;;;;;;;0.44;72.54;97501.73;1785225;80;21067;-56
2021/01/30 17:58:09;;;;;;;48.83;22.07;;;;;;;0.43;72.08;97506.82;1768577;80;21116;-58
2021/01/30 18:00:37;;;;;;;46.17;19.63;;;;;;;0.37;72.29;97510.19;1754440;82;21518;-57
2021/01/30 18:03:05;;;;;;;45.53;19.87;;;;;;;0.41;72.43;97511.13;1753939;82;21145;-54
2021/01/30 18:05:31;;;;;;;44.53;21.40;;;;;;;0.30;71.10;97517.06;1755025;82;21142;-58
2021/01/30 18:07:57;;;;;;;46.20;19.97;;;;;;;0.32;71.97;97518.86;1756676;82;21215;-57
2021/01/30 18:10:24;;;;;;;45.23;20.73;;;;;;;0.32;72.11;97512.20;1757104;82;21114;-61
2021/01/30 18:12:50;;;;;;;42.60;19.40;;;;;;;0.33;71.97;97519.91;1756672;80;21713;-62
2021/01/30 18:15:20;;;;;;;43.67;20.87;;;;;;;0.37;71.89;97512.07;1756946;82;21097;-59
2021/01/30 18:17:46;;;;;;;48.80;21.27;;;;;;;0.34;72.00;97510.78;1756563;82;21602;-62
2021/01/30 18:20:13;;;;;;;46.87;21.63;;;;;;;0.31;71.23;97508.74;1756858;81;21268;-58
2021/01/30 18:22:40;;;;;;;43.33;19.77;;;;;;;0.30;71.17;97513.83;1763403;80;21236;-61
2021/01/30 18:25:07;;;;;;;44.33;20.10;;;;;;;0.02;70.17;97528.45;1782066;80;21114;-57
2021/01/30 18:27:33;;;;;;;42.07;18.07;;;;;;;0.02;71.07;97524.46;1783640;80;21077;-59
2021/01/30 18:29:59;;;;;;;42.63;19.70;;;;;;;-0.09;70.54;97527.14;1787559;80;21602;-65
2021/01/30 18:32:25;;;;;;;42.13;19.33;;;;;;;0.11;71.18;97526.63;1787485;80;21105;-56
2021/01/30 18:34:51;;;;;;;42.97;20.43;;;;;;;0.14;71.22;97528.68;1787844;80;21069;-63
2021/01/30 18:37:17;;;;;;;47.87;21.07;;;;;;;0.26;70.85;97528.87;1787530;80;21114;-66
2021/01/30 18:39:43;;;;;;;33.73;13.60;;;;;;;0.18;70.46;97525.64;1787773;80;21082;-59
2021/01/30 18:42:09;;;;;;;40.13;20.03;;;;;;;0.25;70.45;97532.65;1783668;80;21598;-60
2021/01/30 18:44:35;;;;;;;46.10;21.17;;;;;;;0.22;70.62;97533.27;1756233;82;21149;-63
2021/01/30 18:47:01;;;;;;;34.83;14.37;;;;;;;0.26;70.88;97540.11;1756417;82;21085;-55
2021/01/30 18:49:27;;;;;;;43.67;19.60;;;;;;;0.35;70.67;97543.58;1756122;80;21622;-58
2021/01/30 18:51:53;;;;;;;38.40;19.33;;;;;;;0.37;70.77;97536.07;1756537;82;21228;-56
2021/01/30 18:54:19;;;;;;;45.30;20.67;;;;;;;0.40;70.94;97541.58;1756498;81;21228;-59
2021/01/30 18:56:44;;;;;;;49.80;22.53;;;;;;;0.47;70.93;97543.24;1756541;82;21145;-57
2021/01/30 18:59:10;;;;;;;40.63;21.07;;;;;;;0.47;71.05;97542.45;1756690;80;21054;-57
2021/01/30 19:01:36;;;;;;;44.13;20.23;;;;;;;0.58;70.99;97544.29;1756246;82;21106;-68
2021/01/30 19:04:02;;;;;;;43.50;19.43;;;;;;;0.57;70.84;97537.38;1756188;82;21177;-68
2021/01/30 19:06:28;;;;;;;46.83;20.17;;;;;;;0.58;70.65;97536.28;1756571;82;21590;-68
2021/01/30 19:08:54;;;;;;;49.37;21.00;;;;;;;0.58;70.82;97534.95;1756606;82;21131;-69
2021/01/30 19:11:22;;;;;;;42.83;19.53;;;;;;;0.65;70.44;97537.95;1756669;82;21094;-69
2021/01/30 19:13:51;;;;;;;42.93;20.57;;;;;;;0.55;70.15;97534.24;1756545;80;21175;-67
2021/01/30 19:16:17;;;;;;;49.97;21.47;;;;;;;0.42;70.59;97539.37;1756329;82;21135;-67
2021/01/30 19:18:43;;;;;;;44.10;19.73;;;;;;;0.27;70.59;97541.66;1756764;82;21674;-65
2021/01/30 19:21:09;;;;;;;41.60;19.03;;;;;;;0.33;70.79;97539.91;1727170;82;21113;-69
2021/01/30 19:23:36;;;;;;;44.67;22.00;;;;;;;0.26;70.71;97542.20;1773076;80;21138;-65
2021/01/30 19:26:02;;;;;;;45.10;20.73;;;;;;;0.29;70.99;97532.81;1782119;80;21592;-67
2021/01/30 19:28:28;;;;;;;49.77;22.03;;;;;;;0.30;71.11;97534.40;1785676;80;21136;-60
2021/01/30 19:30:55;;;;;;;43.87;21.67;;;;;;;0.34;71.14;97537.45;1787572;80;21583;-67
2021/01/30 19:33:20;;;;;;;45.27;21.33;;;;;;;0.33;71.21;97539.11;1787825;80;21522;-65
2021/01/30 19:35:46;;;;;;;45.27;21.17;;;;;;;0.31;70.97;97549.28;1787368;80;21187;-66
2021/01/30 19:38:16;;;;;;;47.33;22.00;;;;;;;0.30;71.16;97536.50;1787570;80;21570;-66
2021/01/30 19:40:45;;;;;;;45.73;22.53;;;;;;;0.34;71.40;97544.13;1787280;80;21118;-66
2021/01/30 19:43:12;;;;;;;49.73;23.33;;;;;;;0.42;71.35;97551.38;1788976;80;21099;-56
2021/01/30 19:45:38;;;;;;;46.53;22.60;;;;;;;0.40;71.46;97548.78;1790512;80;21565;-59
2021/01/30 19:48:05;;;;;;;51.50;22.73;;;;;;;0.44;71.32;97553.20;1790624;80;21363;-57
2021/01/30 19:50:36;;;;;;;44.83;21.57;;;;;;;0.34;71.41;97553.45;1790501;80;21532;-61
2021/01/30 19:53:02;;;;;;;46.10;20.67;;;;;;;0.38;71.52;97553.08;1790473;80;21100;-58
2021/01/30 19:55:28;;;;;;;48.10;23.20;;;;;;;0.38;71.54;97557.08;1790512;80;21571;-61
2021/01/30 19:57:55;;;;;;;43.30;19.53;;;;;;;0.44;71.17;97559.88;1775576;80;21150;-63
2021/01/30 22:09:27;;;;;;;69.67;30.63;;;;;;;-0.94;79.22;97643.09;1755704;79;69393;-62
